Bettendorf, IA (52722)

1:51 PM CDT on August 30, 2016 (GMT -0500)
Wyndam Hills | | Change Station

Elev 666 ft 41.56 °N, 90.46 °W | Updated 1 second ago

Mostly Cloudy
Mostly Cloudy
82.4 °F
Feels Like 86 °F
N
0.0
Wind Variable Wind from WSW
Gusts 0.0 mph

Today
High -- | Low -- °F
--% Chance of Precip.
Yesterday
High -- | Low -- °F
Precip. -- in
Pressure 30.14 in
Visibility 10.0 miles
Clouds Mostly Cloudy 1600 ft
Heat Index 86 °F
Dew Point 69 °F
Humidity 64%
Rainfall 0.58 in
Snow Depth Not available.
6:26 AM 7:37 PM
Waning Crescent, 3% visible
SPECI KDVN 301819Z AUTO VRB03KT 10SM BKN016 27/22 A3014 RMK AO2 T02720217
Pressure 30.14 in
Visibility 10.0 miles
Clouds Mostly Cloudy 1600 ft
Heat Index 86 °F
Dew Point 69 °F
Humidity 64%
Rainfall 0.58 in
Snow Depth Not available.
6:26 AM 7:37 PM
Waning Crescent, 3% visible
SPECI KDVN 301819Z AUTO VRB03KT 10SM BKN016 27/22 A3014 RMK AO2 T02720217

10-Day Weather Forecast

Almanac

Astronomy

Aug. 30, 2016 Rise Set
Actual Time
Civil Twilight
Nautical Twilight
Astronomical Twilight
Moon
Length of Visible Light
Length of Day
Tomorrow will be .
, % of the Moon is Illuminated

Today's Extremes

State Highs State Lows

Community

WunderPhotos

Upload Photos

1,935,875 photos uploaded!

WunderBlog® & News

Nearby

Air Quality

  Air Quality AQ Index Pollutant
Not available.

Snow Depth

Station Depth Elevation

Earthquake Activity

City Distance Mag. Time & Date
Minimum magnitude displayed is 2.5.

Coastal Water Temperatures

Place Temperature

Stations

Nearby Weather Stations

Station Location Temp. Windchill Dew Point Humidity Wind Precip. Elev Updated Type
                   

Watches & Warnings

Flood Watch
Issued: 9:06 AM CDT Aug. 30, 2016 – National Weather Service

The National Weather Service in Quad Cities has issued a
* Flood Watch for
the Wapsipinicon River near De Witt 4s
* until Tuesday morning.
* At 8:30 am Tuesday the stage was 9.6 feet.
* Flood stage is 11.0 feet.
* Minor flooding is possible.
* Recent activity... the river will keep falling today and then
begin rising again tonight.
* Forecast... rise above flood stage Saturday morning... and continue
rising to 11.3 feet Sunday morning. Fall below flood stage Tuesday
morning.
* This is based on forecast rainfall, consequently there is limited
confidence in the river reaching flood stage. Forecasts may change
so monitor for updated information.



Lat... Lon 4200 9090 4185 9090 4171 9080 4169 9035
      4177 9033 4184 9071